sensor_id;sensor_type;location;lat;lon;timestamp;temperature;humidity
26595;DHT22;14238;49.496;8.154;2023-04-01T00:00:53;9.90;99.90
26595;DHT22;14238;49.496;8.154;2023-04-01T00:03:20;9.90;99.90
26595;DHT22;14238;49.496;8.154;2023-04-01T00:05:46;9.90;99.90
26595;DHT22;14238;49.496;8.154;2023-04-01T00:08:11;9.90;99.90
26595;DHT22;14238;49.496;8.154;2023-04-01T00:10:37;9.90;99.90
26595;DHT22;14238;49.496;8.154;2023-04-01T00:13:03;9.80;99.90
26595;DHT22;14238;49.496;8.154;2023-04-01T00:15:29;9.80;99.90
26595;DHT22;14238;49.496;8.154;2023-04-01T00:17:55;9.90;99.90
26595;DHT22;14238;49.496;8.154;2023-04-01T00:20:21;9.90;99.90
26595;DHT22;14238;49.496;8.154;2023-04-01T00:22:46;9.90;99.90
26595;DHT22;14238;49.496;8.154;2023-04-01T00:25:12;9.90;99.90
26595;DHT22;14238;49.496;8.154;2023-04-01T00:27:38;9.90;99.90
26595;DHT22;14238;49.496;8.154;2023-04-01T00:30:04;9.90;99.90
26595;DHT22;14238;49.496;8.154;2023-04-01T00:32:30;10.00;99.90
26595;DHT22;14238;49.496;8.154;2023-04-01T00:34:56;9.90;99.90
26595;DHT22;14238;49.496;8.154;2023-04-01T00:37:24;9.80;99.90
26595;DHT22;14238;49.496;8.154;2023-04-01T00:39:49;9.80;99.90
26595;DHT22;14238;49.496;8.154;2023-04-01T00:42:15;9.90;99.90
26595;DHT22;14238;49.496;8.154;2023-04-01T00:44:42;9.90;99.90
26595;DHT22;14238;49.496;8.154;2023-04-01T00:47:08;9.80;99.90
26595;DHT22;14238;49.496;8.154;2023-04-01T00:49:37;9.90;99.90
26595;DHT22;14238;49.496;8.154;2023-04-01T00:52:06;9.80;99.90
26595;DHT22;14238;49.496;8.154;2023-04-01T00:54:33;9.80;99.90
26595;DHT22;14238;49.496;8.154;2023-04-01T00:57:03;9.90;99.90
26595;DHT22;14238;49.496;8.154;2023-04-01T00:59:44;9.80;99.90
26595;DHT22;14238;49.496;8.154;2023-04-01T01:02:13;9.80;99.90
26595;DHT22;14238;49.496;8.154;2023-04-01T01:04:39;9.80;99.90
26595;DHT22;14238;49.496;8.154;2023-04-01T01:10:11;9.80;99.90
26595;DHT22;14238;49.496;8.154;2023-04-01T01:13:00;9.90;99.90
26595;DHT22;14238;49.496;8.154;2023-04-01T01:15:33;9.90;99.90
26595;DHT22;14238;49.496;8.154;2023-04-01T01:37:17;10.00;99.90
26595;DHT22;14238;49.496;8.154;2023-04-01T01:39:50;9.90;99.90
26595;DHT22;14238;49.496;8.154;2023-04-01T01:42:18;10.00;99.90
26595;DHT22;14238;49.496;8.154;2023-04-01T01:44:47;9.90;99.90
26595;DHT22;14238;49.496;8.154;2023-04-01T01:47:14;9.90;99.90
26595;DHT22;14238;49.496;8.154;2023-04-01T01:49:41;9.80;99.90
26595;DHT22;14238;49.496;8.154;2023-04-01T01:52:08;9.80;99.90
26595;DHT22;14238;49.496;8.154;2023-04-01T01:54:33;9.80;99.90
26595;DHT22;14238;49.496;8.154;2023-04-01T01:57:07;9.70;99.90
26595;DHT22;14238;49.496;8.154;2023-04-01T01:59:37;9.60;99.90
26595;DHT22;14238;49.496;8.154;2023-04-01T02:02:04;9.60;99.90
26595;DHT22;14238;49.496;8.154;2023-04-01T02:04:35;9.60;99.90
26595;DHT22;14238;49.496;8.154;2023-04-01T02:07:03;9.50;99.90
26595;DHT22;14238;49.496;8.154;2023-04-01T02:09:29;9.40;99.90
26595;DHT22;14238;49.496;8.154;2023-04-01T02:11:59;9.40;99.90
26595;DHT22;14238;49.496;8.154;2023-04-01T02:14:29;9.30;99.90
26595;DHT22;14238;49.496;8.154;2023-04-01T02:16:59;9.30;99.90
26595;DHT22;14238;49.496;8.154;2023-04-01T02:19:34;9.20;99.90
26595;DHT22;14238;49.496;8.154;2023-04-01T02:22:03;9.00;99.90
26595;DHT22;14238;49.496;8.154;2023-04-01T02:24:31;9.00;99.90
26595;DHT22;14238;49.496;8.154;2023-04-01T02:26:58;9.10;99.90
26595;DHT22;14238;49.496;8.154;2023-04-01T02:29:25;9.00;99.90
26595;DHT22;14238;49.496;8.154;2023-04-01T02:31:51;9.00;99.90
26595;DHT22;14238;49.496;8.154;2023-04-01T02:34:18;9.00;99.90
26595;DHT22;14238;49.496;8.154;2023-04-01T02:36:44;9.10;99.90
26595;DHT22;14238;49.496;8.154;2023-04-01T02:39:10;9.10;99.90
26595;DHT22;14238;49.496;8.154;2023-04-01T02:41:43;9.10;99.90
26595;DHT22;14238;49.496;8.154;2023-04-01T02:44:10;9.10;99.90
26595;DHT22;14238;49.496;8.154;2023-04-01T02:46:36;9.00;99.90
26595;DHT22;14238;49.496;8.154;2023-04-01T02:49:02;9.10;99.90
26595;DHT22;14238;49.496;8.154;2023-04-01T02:51:28;9.00;99.90
26595;DHT22;14238;49.496;8.154;2023-04-01T02:53:53;9.10;99.90
26595;DHT22;14238;49.496;8.154;2023-04-01T02:56:19;9.10;99.90
26595;DHT22;14238;49.496;8.154;2023-04-01T02:58:45;9.10;99.90
26595;DHT22;14238;49.496;8.154;2023-04-01T03:01:11;9.10;99.90
26595;DHT22;14238;49.496;8.154;2023-04-01T03:03:37;9.10;99.90
26595;DHT22;14238;49.496;8.154;2023-04-01T03:06:07;9.10;99.90
26595;DHT22;14238;49.496;8.154;2023-04-01T03:08:34;9.10;99.90
26595;DHT22;14238;49.496;8.154;2023-04-01T03:11:00;9.10;99.90
26595;DHT22;14238;49.496;8.154;2023-04-01T03:13:25;9.20;99.90
26595;DHT22;14238;49.496;8.154;2023-04-01T03:15:51;9.20;99.90
26595;DHT22;14238;49.496;8.154;2023-04-01T03:18:17;9.10;99.90
26595;DHT22;14238;49.496;8.154;2023-04-01T03:20:42;9.10;99.90
26595;DHT22;14238;49.496;8.154;2023-04-01T03:23:09;9.20;99.90
26595;DHT22;14238;49.496;8.154;2023-04-01T03:25:35;9.20;99.90
26595;DHT22;14238;49.496;8.154;2023-04-01T03:28:00;9.20;99.90
26595;DHT22;14238;49.496;8.154;2023-04-01T03:30:27;9.20;99.90
26595;DHT22;14238;49.496;8.154;2023-04-01T03:32:53;9.20;99.90
26595;DHT22;14238;49.496;8.154;2023-04-01T03:35:18;9.20;99.90
26595;DHT22;14238;49.496;8.154;2023-04-01T03:37:44;9.20;99.90
26595;DHT22;14238;49.496;8.154;2023-04-01T03:40:10;9.20;99.90
26595;DHT22;14238;49.496;8.154;2023-04-01T03:42:36;9.20;99.90
26595;DHT22;14238;49.496;8.154;2023-04-01T03:45:03;9.30;99.90
26595;DHT22;14238;49.496;8.154;2023-04-01T03:47:29;9.30;99.90
26595;DHT22;14238;49.496;8.154;2023-04-01T03:49:54;9.20;99.90
26595;DHT22;14238;49.496;8.154;2023-04-01T03:52:20;9.20;99.90
26595;DHT22;14238;49.496;8.154;2023-04-01T03:54:46;9.30;99.90
26595;DHT22;14238;49.496;8.154;2023-04-01T03:57:11;9.30;99.90
26595;DHT22;14238;49.496;8.154;2023-04-01T03:59:37;9.30;99.90
26595;DHT22;14238;49.496;8.154;2023-04-01T04:02:03;9.30;99.90
26595;DHT22;14238;49.496;8.154;2023-04-01T04:04:29;9.30;99.90
26595;DHT22;14238;49.496;8.154;2023-04-01T04:06:55;9.30;99.90
26595;DHT22;14238;49.496;8.154;2023-04-01T04:09:21;9.30;99.90
26595;DHT22;14238;49.496;8.154;2023-04-01T04:11:48;9.30;99.90
26595;DHT22;14238;49.496;8.154;2023-04-01T04:14:13;9.30;99.90
26595;DHT22;14238;49.496;8.154;2023-04-01T04:16:39;9.20;99.90
26595;DHT22;14238;49.496;8.154;2023-04-01T04:19:05;9.20;99.90
26595;DHT22;14238;49.496;8.154;2023-04-01T04:21:30;9.20;99.90
26595;DHT22;14238;49.496;8.154;2023-04-01T04:23:56;9.20;99.90
26595;DHT22;14238;49.496;8.154;2023-04-01T04:26:22;9.20;99.90
26595;DHT22;14238;49.496;8.154;2023-04-01T04:28:47;9.10;99.90
26595;DHT22;14238;49.496;8.154;2023-04-01T04:31:21;9.10;99.90
26595;DHT22;14238;49.496;8.154;2023-04-01T04:33:48;9.10;99.90
26595;DHT22;14238;49.496;8.154;2023-04-01T04:36:14;9.10;99.90
26595;DHT22;14238;49.496;8.154;2023-04-01T04:38:40;9.10;99.90
26595;DHT22;14238;49.496;8.154;2023-04-01T04:41:13;9.10;99.90
26595;DHT22;14238;49.496;8.154;2023-04-01T04:43:40;9.10;99.90
26595;DHT22;14238;49.496;8.154;2023-04-01T04:46:08;9.20;99.90
26595;DHT22;14238;49.496;8.154;2023-04-01T04:48:34;9.10;99.90
26595;DHT22;14238;49.496;8.154;2023-04-01T04:50:59;9.10;99.90
26595;DHT22;14238;49.496;8.154;2023-04-01T04:53:26;9.00;99.90
26595;DHT22;14238;49.496;8.154;2023-04-01T04:55:51;9.00;99.90
26595;DHT22;14238;49.496;8.154;2023-04-01T04:58:17;9.00;99.90
26595;DHT22;14238;49.496;8.154;2023-04-01T05:00:43;8.90;99.90
26595;DHT22;14238;49.496;8.154;2023-04-01T05:03:10;9.00;99.90
26595;DHT22;14238;49.496;8.154;2023-04-01T05:05:36;9.00;99.90
26595;DHT22;14238;49.496;8.154;2023-04-01T05:08:02;9.00;99.90
26595;DHT22;14238;49.496;8.154;2023-04-01T05:10:28;9.00;99.90
26595;DHT22;14238;49.496;8.154;2023-04-01T05:12:54;9.00;99.90
26595;DHT22;14238;49.496;8.154;2023-04-01T05:15:20;8.90;99.90
26595;DHT22;14238;49.496;8.154;2023-04-01T05:17:45;8.90;99.90
26595;DHT22;14238;49.496;8.154;2023-04-01T05:20:12;8.90;99.90
26595;DHT22;14238;49.496;8.154;2023-04-01T05:22:38;8.90;99.90
26595;DHT22;14238;49.496;8.154;2023-04-01T05:25:04;8.90;99.90
26595;DHT22;14238;49.496;8.154;2023-04-01T05:27:29;8.80;99.90
26595;DHT22;14238;49.496;8.154;2023-04-01T05:29:55;8.90;99.90
26595;DHT22;14238;49.496;8.154;2023-04-01T05:32:21;8.80;99.90
26595;DHT22;14238;49.496;8.154;2023-04-01T05:34:50;8.80;99.90
26595;DHT22;14238;49.496;8.154;2023-04-01T05:37:16;8.80;99.90
26595;DHT22;14238;49.496;8.154;2023-04-01T05:39:41;8.80;99.90
26595;DHT22;14238;49.496;8.154;2023-04-01T05:42:07;8.80;99.90
26595;DHT22;14238;49.496;8.154;2023-04-01T05:44:33;8.90;99.90
26595;DHT22;14238;49.496;8.154;2023-04-01T05:46:59;8.90;99.90
26595;DHT22;14238;49.496;8.154;2023-04-01T05:49:24;8.90;99.90
26595;DHT22;14238;49.496;8.154;2023-04-01T05:51:50;8.90;99.90
26595;DHT22;14238;49.496;8.154;2023-04-01T05:54:16;8.90;99.90
26595;DHT22;14238;49.496;8.154;2023-04-01T05:56:42;8.90;99.90
26595;DHT22;14238;49.496;8.154;2023-04-01T05:59:10;8.90;99.90
26595;DHT22;14238;49.496;8.154;2023-04-01T06:01:35;8.90;99.90
26595;DHT22;14238;49.496;8.154;2023-04-01T06:04:01;8.90;99.90
26595;DHT22;14238;49.496;8.154;2023-04-01T06:06:28;8.90;99.90
26595;DHT22;14238;49.496;8.154;2023-04-01T06:08:56;8.90;99.90
26595;DHT22;14238;49.496;8.154;2023-04-01T06:17:03;9.00;99.90
26595;DHT22;14238;49.496;8.154;2023-04-01T06:20:03;9.00;99.90
26595;DHT22;14238;49.496;8.154;2023-04-01T06:30:43;9.10;99.90
26595;DHT22;14238;49.496;8.154;2023-04-01T06:43:58;9.10;99.90
26595;DHT22;14238;49.496;8.154;2023-04-01T06:52:32;9.10;99.90
26595;DHT22;14238;49.496;8.154;2023-04-01T06:57:51;9.00;99.90
26595;DHT22;14238;49.496;8.154;2023-04-01T07:00:34;9.00;99.90
26595;DHT22;14238;49.496;8.154;2023-04-01T07:06:15;9.00;99.90
26595;DHT22;14238;49.496;8.154;2023-04-01T07:08:45;9.00;99.90
26595;DHT22;14238;49.496;8.154;2023-04-01T07:11:26;9.00;99.90
26595;DHT22;14238;49.496;8.154;2023-04-01T07:14:19;9.00;99.90
26595;DHT22;14238;49.496;8.154;2023-04-01T07:16:58;9.10;99.90
26595;DHT22;14238;49.496;8.154;2023-04-01T07:24:44;9.10;99.90
26595;DHT22;14238;49.496;8.154;2023-04-01T07:27:11;9.10;99.90
26595;DHT22;14238;49.496;8.154;2023-04-01T07:29:37;9.20;99.90
26595;DHT22;14238;49.496;8.154;2023-04-01T07:35:08;9.30;99.90
26595;DHT22;14238;49.496;8.154;2023-04-01T07:38:05;9.40;99.90
26595;DHT22;14238;49.496;8.154;2023-04-01T07:43:31;9.40;99.90
26595;DHT22;14238;49.496;8.154;2023-04-01T07:48:57;9.50;99.90
26595;DHT22;14238;49.496;8.154;2023-04-01T07:51:42;9.50;99.90
26595;DHT22;14238;49.496;8.154;2023-04-01T07:57:10;9.50;99.90
26595;DHT22;14238;49.496;8.154;2023-04-01T07:59:56;9.60;99.90
26595;DHT22;14238;49.496;8.154;2023-04-01T08:08:44;9.80;99.90
26595;DHT22;14238;49.496;8.154;2023-04-01T08:11:38;9.70;99.90
26595;DHT22;14238;49.496;8.154;2023-04-01T08:14:25;9.70;99.90
26595;DHT22;14238;49.496;8.154;2023-04-01T08:17:07;9.70;99.90
26595;DHT22;14238;49.496;8.154;2023-04-01T08:22:33;9.70;99.90
26595;DHT22;14238;49.496;8.154;2023-04-01T08:25:04;9.80;99.90
26595;DHT22;14238;49.496;8.154;2023-04-01T08:27:48;9.80;99.90
26595;DHT22;14238;49.496;8.154;2023-04-01T08:30:23;9.90;99.90
26595;DHT22;14238;49.496;8.154;2023-04-01T08:38:32;10.00;99.90
26595;DHT22;14238;49.496;8.154;2023-04-01T08:41:22;10.00;99.90
26595;DHT22;14238;49.496;8.154;2023-04-01T08:44:04;9.90;99.90
26595;DHT22;14238;49.496;8.154;2023-04-01T08:49:48;9.90;99.90
26595;DHT22;14238;49.496;8.154;2023-04-01T08:52:27;10.00;99.90
26595;DHT22;14238;49.496;8.154;2023-04-01T08:55:15;10.00;99.90
26595;DHT22;14238;49.496;8.154;2023-04-01T09:14:47;10.20;99.90
26595;DHT22;14238;49.496;8.154;2023-04-01T09:17:39;10.30;99.90
26595;DHT22;14238;49.496;8.154;2023-04-01T09:23:38;10.40;99.90
26595;DHT22;14238;49.496;8.154;2023-04-01T09:26:40;10.60;99.90
26595;DHT22;14238;49.496;8.154;2023-04-01T09:40:16;11.00;99.90
26595;DHT22;14238;49.496;8.154;2023-04-01T09:48:40;11.00;99.90
26595;DHT22;14238;49.496;8.154;2023-04-01T09:54:32;10.90;99.90
26595;DHT22;14238;49.496;8.154;2023-04-01T10:06:45;11.00;99.90
26595;DHT22;14238;49.496;8.154;2023-04-01T10:13:14;11.20;99.90
26595;DHT22;14238;49.496;8.154;2023-04-01T10:19:12;11.10;99.90
26595;DHT22;14238;49.496;8.154;2023-04-01T10:22:04;11.30;99.90
26595;DHT22;14238;49.496;8.154;2023-04-01T10:27:55;11.50;99.90
26595;DHT22;14238;49.496;8.154;2023-04-01T10:48:21;11.20;99.90
26595;DHT22;14238;49.496;8.154;2023-04-01T11:01:58;11.60;99.90
26595;DHT22;14238;49.496;8.154;2023-04-01T11:10:19;11.90;99.90
26595;DHT22;14238;49.496;8.154;2023-04-01T11:13:26;11.80;99.90
26595;DHT22;14238;49.496;8.154;2023-04-01T11:22:08;11.90;99.90
26595;DHT22;14238;49.496;8.154;2023-04-01T11:27:38;11.70;99.90
26595;DHT22;14238;49.496;8.154;2023-04-01T11:33:00;12.20;99.90
26595;DHT22;14238;49.496;8.154;2023-04-01T11:35:49;12.20;99.90
26595;DHT22;14238;49.496;8.154;2023-04-01T11:44:20;11.80;99.90
26595;DHT22;14238;49.496;8.154;2023-04-01T11:47:02;11.80;99.90
26595;DHT22;14238;49.496;8.154;2023-04-01T11:55:47;12.30;99.90
26595;DHT22;14238;49.496;8.154;2023-04-01T11:58:23;12.50;99.90
26595;DHT22;14238;49.496;8.154;2023-04-01T12:06:13;12.60;99.90
26595;DHT22;14238;49.496;8.154;2023-04-01T12:09:01;12.60;99.90
26595;DHT22;14238;49.496;8.154;2023-04-01T12:11:44;12.70;99.90
26595;DHT22;14238;49.496;8.154;2023-04-01T12:23:13;13.00;99.90
26595;DHT22;14238;49.496;8.154;2023-04-01T12:26:13;13.00;99.90
26595;DHT22;14238;49.496;8.154;2023-04-01T12:34:48;12.70;99.90
26595;DHT22;14238;49.496;8.154;2023-04-01T12:37:25;12.90;99.90
26595;DHT22;14238;49.496;8.154;2023-04-01T12:40:51;12.90;99.90
26595;DHT22;14238;49.496;8.154;2023-04-01T12:46:24;12.70;99.90
26595;DHT22;14238;49.496;8.154;2023-04-01T12:51:46;13.30;99.90
26595;DHT22;14238;49.496;8.154;2023-04-01T12:57:45;13.40;99.90
26595;DHT22;14238;49.496;8.154;2023-04-01T13:03:26;13.30;99.90
26595;DHT22;14238;49.496;8.154;2023-04-01T13:08:43;12.50;99.90
26595;DHT22;14238;49.496;8.154;2023-04-01T13:11:44;12.20;99.90
26595;DHT22;14238;49.496;8.154;2023-04-01T13:17:03;12.00;99.90
26595;DHT22;14238;49.496;8.154;2023-04-01T13:19:57;12.10;99.90
26595;DHT22;14238;49.496;8.154;2023-04-01T13:27:47;12.20;99.90
26595;DHT22;14238;49.496;8.154;2023-04-01T13:30:33;12.10;99.90
26595;DHT22;14238;49.496;8.154;2023-04-01T13:33:25;12.30;99.90
26595;DHT22;14238;49.496;8.154;2023-04-01T13:41:21;12.30;99.90
26595;DHT22;14238;49.496;8.154;2023-04-01T13:43:52;12.40;99.90
26595;DHT22;14238;49.496;8.154;2023-04-01T13:52:05;12.50;99.90
26595;DHT22;14238;49.496;8.154;2023-04-01T14:00:22;12.30;99.90
26595;DHT22;14238;49.496;8.154;2023-04-01T14:06:11;12.20;99.90
26595;DHT22;14238;49.496;8.154;2023-04-01T14:22:42;12.50;99.90
26595;DHT22;14238;49.496;8.154;2023-04-01T14:28:12;12.60;99.90
26595;DHT22;14238;49.496;8.154;2023-04-01T14:30:57;12.70;99.90
26595;DHT22;14238;49.496;8.154;2023-04-01T14:39:12;12.50;99.90
26595;DHT22;14238;49.496;8.154;2023-04-01T14:49:53;11.90;99.90
26595;DHT22;14238;49.496;8.154;2023-04-01T14:52:31;11.90;99.90
26595;DHT22;14238;49.496;8.154;2023-04-01T14:55:00;11.90;99.90
26595;DHT22;14238;49.496;8.154;2023-04-01T14:57:27;12.00;99.90
26595;DHT22;14238;49.496;8.154;2023-04-01T15:05:27;12.20;99.90
26595;DHT22;14238;49.496;8.154;2023-04-01T15:08:15;12.20;99.90
26595;DHT22;14238;49.496;8.154;2023-04-01T15:13:20;12.30;99.90
26595;DHT22;14238;49.496;8.154;2023-04-01T15:19:24;12.30;99.90
26595;DHT22;14238;49.496;8.154;2023-04-01T15:24:29;12.10;99.90
26595;DHT22;14238;49.496;8.154;2023-04-01T15:27:19;12.20;99.90
26595;DHT22;14238;49.496;8.154;2023-04-01T15:30:18;12.00;99.90
26595;DHT22;14238;49.496;8.154;2023-04-01T15:35:40;11.90;99.90
26595;DHT22;14238;49.496;8.154;2023-04-01T15:38:40;11.90;99.90
26595;DHT22;14238;49.496;8.154;2023-04-01T15:41:17;11.90;99.90
26595;DHT22;14238;49.496;8.154;2023-04-01T15:43:47;12.10;99.90
26595;DHT22;14238;49.496;8.154;2023-04-01T15:46:41;12.10;99.90
26595;DHT22;14238;49.496;8.154;2023-04-01T15:52:36;12.00;99.90
26595;DHT22;14238;49.496;8.154;2023-04-01T15:55:22;11.80;99.90
26595;DHT22;14238;49.496;8.154;2023-04-01T16:00:50;11.60;99.90
26595;DHT22;14238;49.496;8.154;2023-04-01T16:03:27;11.60;99.90
26595;DHT22;14238;49.496;8.154;2023-04-01T16:11:41;11.40;99.90
26595;DHT22;14238;49.496;8.154;2023-04-01T16:22:42;11.40;99.90
26595;DHT22;14238;49.496;8.154;2023-04-01T16:31:00;11.50;99.90
26595;DHT22;14238;49.496;8.154;2023-04-01T16:36:30;11.50;99.90
26595;DHT22;14238;49.496;8.154;2023-04-01T16:41:47;11.40;99.90
26595;DHT22;14238;49.496;8.154;2023-04-01T16:44:25;11.30;99.90
26595;DHT22;14238;49.496;8.154;2023-04-01T16:46:58;11.30;99.90
26595;DHT22;14238;49.496;8.154;2023-04-01T16:52:48;11.40;99.90
26595;DHT22;14238;49.496;8.154;2023-04-01T16:55:19;11.40;99.90
26595;DHT22;14238;49.496;8.154;2023-04-01T16:57:56;11.30;99.90
26595;DHT22;14238;49.496;8.154;2023-04-01T17:05:52;11.40;99.90
26595;DHT22;14238;49.496;8.154;2023-04-01T17:08:36;11.20;99.90
26595;DHT22;14238;49.496;8.154;2023-04-01T17:11:10;11.20;99.90
26595;DHT22;14238;49.496;8.154;2023-04-01T17:13:57;11.20;99.90
26595;DHT22;14238;49.496;8.154;2023-04-01T17:16:40;11.20;99.90
26595;DHT22;14238;49.496;8.154;2023-04-01T17:33:07;10.80;99.90
26595;DHT22;14238;49.496;8.154;2023-04-01T17:36:04;10.70;99.90
26595;DHT22;14238;49.496;8.154;2023-04-01T17:38:54;10.70;99.90
26595;DHT22;14238;49.496;8.154;2023-04-01T17:44:47;10.70;99.90
26595;DHT22;14238;49.496;8.154;2023-04-01T17:50:45;10.50;99.90
26595;DHT22;14238;49.496;8.154;2023-04-01T17:53:57;10.50;99.90
26595;DHT22;14238;49.496;8.154;2023-04-01T17:56:45;10.40;99.90
26595;DHT22;14238;49.496;8.154;2023-04-01T18:02:01;10.30;99.90
26595;DHT22;14238;49.496;8.154;2023-04-01T18:04:44;10.20;99.90
26595;DHT22;14238;49.496;8.154;2023-04-01T18:07:39;10.20;99.90
26595;DHT22;14238;49.496;8.154;2023-04-01T18:10:28;10.20;99.90
26595;DHT22;14238;49.496;8.154;2023-04-01T18:13:19;10.10;99.90
26595;DHT22;14238;49.496;8.154;2023-04-01T18:18:57;10.10;99.90
26595;DHT22;14238;49.496;8.154;2023-04-01T18:21:36;10.00;99.90
26595;DHT22;14238;49.496;8.154;2023-04-01T18:24:11;10.00;99.90
26595;DHT22;14238;49.496;8.154;2023-04-01T18:26:42;10.00;99.90
26595;DHT22;14238;49.496;8.154;2023-04-01T18:29:20;10.00;99.90
26595;DHT22;14238;49.496;8.154;2023-04-01T18:31:52;10.00;99.90
26595;DHT22;14238;49.496;8.154;2023-04-01T18:37:27;9.90;99.90
26595;DHT22;14238;49.496;8.154;2023-04-01T18:40:30;9.90;99.90
26595;DHT22;14238;49.496;8.154;2023-04-01T18:45:33;9.90;99.90
26595;DHT22;14238;49.496;8.154;2023-04-01T18:56:47;9.80;99.90
26595;DHT22;14238;49.496;8.154;2023-04-01T18:59:37;9.80;99.90
26595;DHT22;14238;49.496;8.154;2023-04-01T19:02:24;9.90;99.90
26595;DHT22;14238;49.496;8.154;2023-04-01T19:05:42;9.80;99.90
26595;DHT22;14238;49.496;8.154;2023-04-01T19:07:45;9.80;99.90
26595;DHT22;14238;49.496;8.154;2023-04-01T19:13:19;9.80;99.90
26595;DHT22;14238;49.496;8.154;2023-04-01T19:19:12;9.80;99.90
26595;DHT22;14238;49.496;8.154;2023-04-01T19:21:47;9.80;99.90
26595;DHT22;14238;49.496;8.154;2023-04-01T19:24:50;9.70;99.90
26595;DHT22;14238;49.496;8.154;2023-04-01T19:27:40;9.70;99.90
26595;DHT22;14238;49.496;8.154;2023-04-01T19:30:30;9.70;99.90
26595;DHT22;14238;49.496;8.154;2023-04-01T19:38:31;9.70;99.90
26595;DHT22;14238;49.496;8.154;2023-04-01T19:44:04;9.60;99.90
26595;DHT22;14238;49.496;8.154;2023-04-01T19:46:49;9.70;99.90
26595;DHT22;14238;49.496;8.154;2023-04-01T19:52:42;9.60;99.90
26595;DHT22;14238;49.496;8.154;2023-04-01T19:55:37;9.60;99.90
26595;DHT22;14238;49.496;8.154;2023-04-01T20:00:42;9.60;99.90
26595;DHT22;14238;49.496;8.154;2023-04-01T20:08:27;9.60;99.90
26595;DHT22;14238;49.496;8.154;2023-04-01T20:13:55;9.60;99.90
26595;DHT22;14238;49.496;8.154;2023-04-01T20:16:47;9.60;99.90
26595;DHT22;14238;49.496;8.154;2023-04-01T20:19:24;9.60;99.90
26595;DHT22;14238;49.496;8.154;2023-04-01T20:21:51;9.60;99.90
26595;DHT22;14238;49.496;8.154;2023-04-01T20:24:25;9.60;99.90
26595;DHT22;14238;49.496;8.154;2023-04-01T20:27:22;9.60;99.90
26595;DHT22;14238;49.496;8.154;2023-04-01T20:35:26;9.60;99.90
26595;DHT22;14238;49.496;8.154;2023-04-01T20:40:47;9.60;99.90
26595;DHT22;14238;49.496;8.154;2023-04-01T20:43:23;9.60;99.90
26595;DHT22;14238;49.496;8.154;2023-04-01T20:51:26;9.60;99.90
26595;DHT22;14238;49.496;8.154;2023-04-01T20:54:32;9.60;99.90
26595;DHT22;14238;49.496;8.154;2023-04-01T21:00:16;9.60;99.90
26595;DHT22;14238;49.496;8.154;2023-04-01T21:02:52;9.60;99.90
26595;DHT22;14238;49.496;8.154;2023-04-01T21:16:47;9.60;99.90
26595;DHT22;14238;49.496;8.154;2023-04-01T21:22:51;9.50;99.90
26595;DHT22;14238;49.496;8.154;2023-04-01T21:25:56;9.50;99.90
26595;DHT22;14238;49.496;8.154;2023-04-01T21:28:35;9.50;99.90
26595;DHT22;14238;49.496;8.154;2023-04-01T21:36:49;9.50;99.90
26595;DHT22;14238;49.496;8.154;2023-04-01T21:42:15;9.50;99.90
26595;DHT22;14238;49.496;8.154;2023-04-01T21:47:22;9.50;99.90
26595;DHT22;14238;49.496;8.154;2023-04-01T21:53:33;9.50;99.90
26595;DHT22;14238;49.496;8.154;2023-04-01T21:56:28;9.50;99.90
26595;DHT22;14238;49.496;8.154;2023-04-01T22:02:15;9.50;99.90
26595;DHT22;14238;49.496;8.154;2023-04-01T22:05:11;9.50;99.90
26595;DHT22;14238;49.496;8.154;2023-04-01T22:10:58;9.50;99.90
26595;DHT22;14238;49.496;8.154;2023-04-01T22:13:39;9.50;99.90
26595;DHT22;14238;49.496;8.154;2023-04-01T22:21:33;9.40;99.90
26595;DHT22;14238;49.496;8.154;2023-04-01T22:30:11;9.40;99.90
26595;DHT22;14238;49.496;8.154;2023-04-01T22:32:47;9.40;99.90
26595;DHT22;14238;49.496;8.154;2023-04-01T22:35:38;9.40;99.90
26595;DHT22;14238;49.496;8.154;2023-04-01T22:38:28;9.40;99.90
26595;DHT22;14238;49.496;8.154;2023-04-01T22:41:14;9.40;99.90
26595;DHT22;14238;49.496;8.154;2023-04-01T22:43:44;9.40;99.90
26595;DHT22;14238;49.496;8.154;2023-04-01T22:54:29;9.40;99.90
26595;DHT22;14238;49.496;8.154;2023-04-01T22:59:53;9.40;99.90
26595;DHT22;14238;49.496;8.154;2023-04-01T23:02:30;9.40;99.90
26595;DHT22;14238;49.496;8.154;2023-04-01T23:05:00;9.40;99.90
26595;DHT22;14238;49.496;8.154;2023-04-01T23:07:45;9.40;99.90
26595;DHT22;14238;49.496;8.154;2023-04-01T23:10:38;9.40;99.90
26595;DHT22;14238;49.496;8.154;2023-04-01T23:13:09;9.40;99.90
26595;DHT22;14238;49.496;8.154;2023-04-01T23:15:36;9.40;99.90
26595;DHT22;14238;49.496;8.154;2023-04-01T23:18:05;9.40;99.90
26595;DHT22;14238;49.496;8.154;2023-04-01T23:23:26;9.40;99.90
26595;DHT22;14238;49.496;8.154;2023-04-01T23:26:13;9.40;99.90
26595;DHT22;14238;49.496;8.154;2023-04-01T23:28:44;9.40;99.90
26595;DHT22;14238;49.496;8.154;2023-04-01T23:36:50;9.40;99.90
26595;DHT22;14238;49.496;8.154;2023-04-01T23:41:48;9.40;99.90
26595;DHT22;14238;49.496;8.154;2023-04-01T23:44:14;9.40;99.90
26595;DHT22;14238;49.496;8.154;2023-04-01T23:46:42;9.30;99.90
26595;DHT22;14238;49.496;8.154;2023-04-01T23:49:46;9.30;99.90
26595;DHT22;14238;49.496;8.154;2023-04-01T23:52:54;9.30;99.90
26595;DHT22;14238;49.496;8.154;2023-04-01T23:57:37;9.20;99.90
